Time;durP1;ratioP1;P1;durP2;ratioP2;P2;SDS_P1;SDS_P2;PMS_P1;PMS_P2;Temp;Humidity;BMP_temperature;BMP_pressure;BME280_temperature;BME280_humidity;BME280_pressure;Samples;Min_cycle;Max_cycle;Signal;HPM_P1;HPM_P2
2021/06/30 00:02:09;;;;;;;3.90;3.50;;;;;;;14.96;100.00;99614.66;4998282;28;20065;-73
2021/06/30 00:04:41;;;;;;;4.80;3.60;;;;;;;14.92;100.00;99617.63;4998094;28;20399;-71
2021/06/30 00:07:13;;;;;;;6.25;3.78;;;;;;;14.94;100.00;99612.13;4997787;28;20100;-72
2021/06/30 00:09:44;;;;;;;5.72;3.88;;;;;;;14.95;100.00;99616.53;4996578;28;20069;-71
2021/06/30 00:12:16;;;;;;;6.03;4.25;;;;;;;14.95;100.00;99627.28;4998041;28;20058;-72
2021/06/30 00:14:47;;;;;;;6.72;4.43;;;;;;;14.94;100.00;99628.25;4997856;28;20051;-71
2021/06/30 00:17:19;;;;;;;8.68;4.80;;;;;;;14.98;100.00;99632.34;4997084;28;20046;-73
2021/06/30 00:19:51;;;;;;;7.13;4.80;;;;;;;14.87;100.00;99630.63;4992500;28;20058;-71
2021/06/30 00:22:22;;;;;;;7.55;4.47;;;;;;;15.02;100.00;99635.63;4978146;28;20515;-72
2021/06/30 00:24:54;;;;;;;4.90;3.83;;;;;;;15.01;100.00;99634.78;4978336;28;20059;-72
2021/06/30 00:27:26;;;;;;;5.57;4.30;;;;;;;14.94;100.00;99636.31;4978043;28;20062;-73
2021/06/30 00:29:57;;;;;;;4.55;3.28;;;;;;;14.94;100.00;99647.06;4977153;28;20062;-72
2021/06/30 00:32:28;;;;;;;4.68;3.10;;;;;;;14.92;100.00;99646.34;4977871;28;20059;-71
2021/06/30 00:35:00;;;;;;;3.55;2.70;;;;;;;14.94;100.00;99649.75;4961918;28;20062;-72
2021/06/30 00:37:32;;;;;;;3.95;3.10;;;;;;;14.86;100.00;99639.66;4977933;28;20114;-73
2021/06/30 00:40:04;;;;;;;7.65;4.45;;;;;;;14.88;100.00;99644.91;4978156;28;20121;-72
2021/06/30 00:42:36;;;;;;;3.72;2.85;;;;;;;14.84;100.00;99647.03;4977771;28;20062;-74
2021/06/30 00:45:09;;;;;;;4.93;3.30;;;;;;;14.77;100.00;99651.22;4977873;28;20409;-72
2021/06/30 00:47:40;;;;;;;6.35;3.45;;;;;;;14.75;100.00;99648.66;4977733;28;20446;-73
2021/06/30 00:50:19;;;;;;;3.30;2.83;;;;;;;14.75;100.00;99651.34;4978023;28;20326;-72
2021/06/30 00:52:50;;;;;;;3.40;2.80;;;;;;;14.64;100.00;99640.66;4977542;28;20121;-72
2021/06/30 00:55:23;;;;;;;2.83;2.38;;;;;;;14.63;100.00;99644.31;4977520;28;20752;-71
2021/06/30 00:57:55;;;;;;;6.22;2.10;;;;;;;14.63;100.00;99647.00;4977407;28;20125;-73
2021/06/30 01:00:26;;;;;;;5.10;2.47;;;;;;;14.58;100.00;99649.25;4977534;28;20055;-72
2021/06/30 01:02:58;;;;;;;2.45;2.25;;;;;;;14.62;100.00;99642.63;4977394;28;20055;-72
2021/06/30 01:05:29;;;;;;;3.22;2.67;;;;;;;14.64;100.00;99636.16;4977700;28;20058;-72
2021/06/30 01:08:04;;;;;;;3.58;2.90;;;;;;;14.67;100.00;99629.66;4977610;28;20063;-71
2021/06/30 01:10:36;;;;;;;4.95;2.42;;;;;;;14.60;100.00;99623.97;4977249;28;20063;-72
2021/06/30 01:13:07;;;;;;;3.97;2.45;;;;;;;14.59;100.00;99611.50;4977295;28;20102;-71
2021/06/30 01:15:55;;;;;;;4.10;2.88;;;;;;;14.53;100.00;99601.31;4977493;28;20047;-73
2021/06/30 01:18:29;;;;;;;5.50;2.35;;;;;;;14.60;100.00;99604.31;4977156;28;20058;-71
2021/06/30 01:21:04;;;;;;;3.60;2.35;;;;;;;14.56;100.00;99597.50;4992459;28;20062;-70
2021/06/30 01:23:36;;;;;;;2.33;2.08;;;;;;;14.58;100.00;99599.06;4997055;28;20057;-72
2021/06/30 01:26:07;;;;;;;2.58;2.35;;;;;;;14.55;100.00;99593.13;4997327;28;20065;-73
2021/06/30 01:28:39;;;;;;;3.30;2.20;;;;;;;14.52;100.00;99588.88;4995876;28;20050;-71
2021/06/30 01:31:13;;;;;;;2.90;2.53;;;;;;;14.47;100.00;99566.94;4996687;28;20058;-71
2021/06/30 01:33:44;;;;;;;3.33;2.60;;;;;;;14.52;100.00;99564.69;4995575;28;20089;-73
2021/06/30 01:36:16;;;;;;;3.85;2.88;;;;;;;14.60;100.00;99572.09;4996315;28;20483;-71
2021/06/30 01:38:47;;;;;;;3.55;3.10;;;;;;;14.61;100.00;99569.25;4995515;28;20051;-73
2021/06/30 01:41:19;;;;;;;4.40;2.90;;;;;;;14.53;100.00;99563.72;4996345;28;20069;-71
2021/06/30 01:43:50;;;;;;;4.45;3.08;;;;;;;14.58;100.00;99565.97;4995142;28;20050;-72
2021/06/30 01:46:23;;;;;;;5.15;3.05;;;;;;;14.52;100.00;99568.25;4996190;28;20085;-74
2021/06/30 01:48:55;;;;;;;3.28;2.60;;;;;;;14.53;100.00;99580.69;4996209;28;20054;-74
2021/06/30 01:51:27;;;;;;;5.40;3.20;;;;;;;14.52;100.00;99576.31;4995720;28;20050;-74
2021/06/30 01:54:00;;;;;;;5.55;2.97;;;;;;;14.55;100.00;99579.69;4996336;28;20050;-72
2021/06/30 01:56:33;;;;;;;4.15;3.28;;;;;;;14.59;100.00;99573.09;4996090;28;20049;-73
2021/06/30 01:59:06;;;;;;;7.43;3.30;;;;;;;14.53;100.00;99566.41;4995010;28;20058;-71
2021/06/30 02:01:40;;;;;;;3.60;3.05;;;;;;;14.51;100.00;99560.31;4996360;28;20058;-73
2021/06/30 02:04:13;;;;;;;4.28;3.47;;;;;;;14.47;100.00;99553.50;4995745;28;20583;-73
2021/06/30 02:06:44;;;;;;;3.50;3.20;;;;;;;14.33;100.00;99536.75;4996158;28;20332;-70
2021/06/30 02:09:16;;;;;;;4.35;3.17;;;;;;;14.42;100.00;99542.34;4995822;28;20360;-74
2021/06/30 02:11:48;;;;;;;3.28;2.67;;;;;;;14.44;100.00;99549.25;4995923;28;20404;-73
2021/06/30 02:14:19;;;;;;;4.10;3.30;;;;;;;14.43;100.00;99547.56;4995666;28;20062;-73
2021/06/30 02:16:51;;;;;;;6.05;2.47;;;;;;;14.50;100.00;99564.81;4995686;28;20424;-74
2021/06/30 02:19:22;;;;;;;3.92;3.00;;;;;;;14.56;100.00;99565.28;4994517;28;20066;-74
2021/06/30 02:21:54;;;;;;;3.17;2.70;;;;;;;14.62;100.00;99557.56;4976400;28;20065;-74
2021/06/30 02:24:25;;;;;;;4.93;3.17;;;;;;;14.63;100.00;99555.69;4976167;28;20377;-72
2021/06/30 02:26:57;;;;;;;4.00;3.00;;;;;;;14.70;100.00;99553.34;4975511;28;20046;-74
2021/06/30 02:29:28;;;;;;;2.60;2.40;;;;;;;14.64;100.00;99547.50;4975129;28;20437;-74
2021/06/30 02:32:00;;;;;;;3.55;2.60;;;;;;;14.67;100.00;99560.66;4976215;28;20467;-73
2021/06/30 02:34:32;;;;;;;2.53;2.30;;;;;;;14.68;100.00;99556.16;4976342;28;20069;-72
2021/06/30 02:37:04;;;;;;;2.75;2.50;;;;;;;14.68;100.00;99556.16;4976400;28;20047;-74
2021/06/30 02:39:35;;;;;;;3.15;2.60;;;;;;;14.56;100.00;99543.81;4977228;28;20058;-73
2021/06/30 02:42:07;;;;;;;3.70;3.15;;;;;;;14.53;100.00;99548.47;4980179;28;20059;-74
2021/06/30 02:44:39;;;;;;;3.35;3.05;;;;;;;14.65;100.00;99557.28;4980253;28;20085;-72
2021/06/30 02:47:10;;;;;;;3.40;3.10;;;;;;;14.62;100.00;99552.19;4979967;28;20047;-72
2021/06/30 02:49:42;;;;;;;4.20;2.85;;;;;;;14.64;100.00;99554.72;4978894;28;20063;-72
2021/06/30 02:52:14;;;;;;;4.60;3.10;;;;;;;14.62;100.00;99560.25;4980163;28;20054;-72
2021/06/30 02:54:45;;;;;;;3.75;3.03;;;;;;;14.69;100.00;99554.28;4980095;28;20396;-73
2021/06/30 02:57:17;;;;;;;3.15;2.72;;;;;;;14.72;100.00;99562.97;4963418;28;20515;-72
2021/06/30 02:59:48;;;;;;;3.80;3.17;;;;;;;14.73;100.00;99559.28;4978666;28;20106;-72
2021/06/30 03:02:20;;;;;;;3.35;2.95;;;;;;;14.73;100.00;99559.28;4979701;28;20059;-74
2021/06/30 03:04:52;;;;;;;4.43;3.45;;;;;;;14.73;100.00;99564.66;4979669;28;20647;-73
2021/06/30 03:07:24;;;;;;;4.10;3.50;;;;;;;14.71;100.00;99571.97;4979841;28;20046;-72
2021/06/30 03:09:55;;;;;;;3.90;3.50;;;;;;;14.66;100.00;99574.25;4978376;28;20117;-72
2021/06/30 03:12:27;;;;;;;3.83;3.50;;;;;;;14.60;100.00;99575.63;4979798;28;20058;-72
2021/06/30 03:14:58;;;;;;;4.63;3.25;;;;;;;14.47;100.00;99569.63;4979795;28;20054;-72
2021/06/30 03:17:34;;;;;;;2.63;2.42;;;;;;;14.55;100.00;99569.81;4978426;28;20433;-72
2021/06/30 03:20:12;;;;;;;1.83;1.70;;;;;;;14.53;100.00;99561.88;4986795;28;20054;-72
2021/06/30 03:22:44;;;;;;;2.53;1.90;;;;;;;14.42;100.00;99561.13;4998784;28;20047;-72
2021/06/30 03:25:16;;;;;;;2.10;1.90;;;;;;;14.39;100.00;99572.97;4998685;28;20073;-72
2021/06/30 03:27:47;;;;;;;2.95;1.90;;;;;;;14.39;100.00;99583.72;4999078;28;20055;-72
2021/06/30 03:30:19;;;;;;;2.95;2.00;;;;;;;14.26;100.00;99560.63;4998809;28;20061;-72
2021/06/30 03:32:50;;;;;;;2.60;2.40;;;;;;;14.36;100.00;99581.28;4997580;28;20367;-72
2021/06/30 03:35:22;;;;;;;2.92;2.35;;;;;;;14.35;100.00;99587.66;4998451;28;20066;-71
2021/06/30 03:37:54;;;;;;;3.33;2.60;;;;;;;14.35;100.00;99587.66;4998431;28;20042;-72
2021/06/30 03:40:26;;;;;;;2.75;2.42;;;;;;;14.32;100.00;99585.25;4998431;28;20305;-72
2021/06/30 03:42:57;;;;;;;2.70;2.50;;;;;;;14.31;100.00;99597.78;4998577;28;20058;-72
2021/06/30 03:45:29;;;;;;;2.92;2.30;;;;;;;14.28;100.00;99598.06;4998334;28;20428;-72
2021/06/30 03:48:00;;;;;;;1.92;1.75;;;;;;;14.26;100.00;99600.00;4998651;28;20050;-72
2021/06/30 03:50:32;;;;;;;3.30;1.70;;;;;;;14.20;100.00;99590.66;4998352;28;20054;-72
2021/06/30 03:53:04;;;;;;;1.75;1.63;;;;;;;14.21;100.00;99605.78;4998282;28;20065;-72
2021/06/30 03:55:36;;;;;;;1.40;1.10;;;;;;;14.12;100.00;99601.22;4999794;28;20463;-72
2021/06/30 03:58:07;;;;;;;1.02;1.02;;;;;;;14.12;100.00;99604.72;5001185;28;20129;-72
2021/06/30 04:00:39;;;;;;;1.10;1.00;;;;;;;14.06;100.00;99593.69;5000244;28;20054;-71
2021/06/30 04:03:10;;;;;;;2.90;1.10;;;;;;;14.15;100.00;99609.00;4997200;28;20053;-71
2021/06/30 04:05:44;;;;;;;0.90;0.90;;;;;;;14.10;100.00;99608.53;4998423;28;20419;-73
2021/06/30 04:08:16;;;;;;;1.00;0.90;;;;;;;14.16;100.00;99610.69;4998059;28;20076;-74
2021/06/30 04:10:47;;;;;;;1.13;1.00;;;;;;;14.08;100.00;99611.34;4996748;28;20069;-73
2021/06/30 04:13:19;;;;;;;0.90;0.60;;;;;;;13.94;100.00;99615.19;4997207;28;20056;-72
2021/06/30 04:15:50;;;;;;;1.35;0.70;;;;;;;13.85;100.00;99608.75;4998090;28;20054;-72
2021/06/30 04:18:22;;;;;;;1.23;0.70;;;;;;;13.87;100.00;99616.69;4997726;28;20443;-71
2021/06/30 04:20:54;;;;;;;0.90;0.82;;;;;;;13.97;100.00;99619.44;4983974;28;20448;-73
2021/06/30 04:23:25;;;;;;;1.02;0.80;;;;;;;13.94;100.00;99611.69;4978190;28;20059;-73
2021/06/30 04:25:57;;;;;;;0.70;0.70;;;;;;;13.88;100.00;99596.94;4978086;28;20106;-73
2021/06/30 04:28:28;;;;;;;0.60;0.60;;;;;;;13.89;100.00;99600.47;4978159;28;20105;-71
2021/06/30 04:31:00;;;;;;;0.52;0.45;;;;;;;13.78;100.00;99607.56;4978328;28;20208;-72
2021/06/30 04:33:32;;;;;;;0.77;0.77;;;;;;;13.75;100.00;99615.91;4977083;28;20082;-73
2021/06/30 04:36:04;;;;;;;1.13;0.68;;;;;;;13.74;100.00;99613.34;4977890;28;20098;-73
2021/06/30 04:38:35;;;;;;;1.55;0.70;;;;;;;13.79;100.00;99617.31;4961766;28;20057;-74
2021/06/30 04:41:09;;;;;;;2.13;0.88;;;;;;;13.82;100.00;99617.09;4977994;28;20054;-74
2021/06/30 04:43:40;;;;;;;1.25;0.77;;;;;;;13.82;100.00;99619.75;4978293;28;20396;-73
2021/06/30 04:46:12;;;;;;;1.77;0.90;;;;;;;13.85;100.00;99619.50;4977686;28;20050;-73
2021/06/30 04:48:44;;;;;;;0.60;0.60;;;;;;;13.83;100.00;99616.09;4978122;28;20058;-74
2021/06/30 04:51:15;;;;;;;0.95;0.90;;;;;;;13.80;100.00;99616.38;4977795;28;20346;-74
2021/06/30 04:53:49;;;;;;;0.50;0.50;;;;;;;13.66;100.00;99620.19;4978023;28;20055;-73
2021/06/30 04:56:27;;;;;;;1.25;0.70;;;;;;;13.62;100.00;99629.44;4977595;28;20055;-71
2021/06/30 04:58:58;;;;;;;1.08;0.57;;;;;;;13.52;100.00;99633.88;4977635;28;20057;-72
2021/06/30 05:01:30;;;;;;;0.70;0.70;;;;;;;13.39;100.00;99615.22;4976477;28;20051;-71
2021/06/30 05:04:02;;;;;;;0.60;0.60;;;;;;;13.44;100.00;99629.97;4977598;28;20066;-71
2021/06/30 05:06:35;;;;;;;1.05;0.60;;;;;;;13.43;100.00;99636.31;4977565;28;20093;-72
2021/06/30 05:09:06;;;;;;;3.70;0.80;;;;;;;13.52;100.00;99640.06;4976286;28;20460;-72
2021/06/30 05:11:38;;;;;;;1.67;0.57;;;;;;;13.60;100.00;99641.28;4976647;28;20059;-73
2021/06/30 05:14:10;;;;;;;3.03;0.50;;;;;;;13.62;100.00;99644.69;4977386;28;20058;-71
2021/06/30 05:16:41;;;;;;;0.52;0.52;;;;;;;13.64;100.00;99634.69;4977195;28;20058;-71
2021/06/30 05:19:13;;;;;;;0.40;0.40;;;;;;;13.63;100.00;99647.25;4977248;28;20468;-70
2021/06/30 05:21:45;;;;;;;1.02;0.70;;;;;;;13.64;100.00;99648.09;4996618;28;20057;-72
2021/06/30 05:24:16;;;;;;;1.95;0.80;;;;;;;13.67;100.00;99642.50;4995880;28;20046;-72
2021/06/30 05:26:48;;;;;;;0.70;0.70;;;;;;;13.70;100.00;99632.38;4995481;28;20095;-72
2021/06/30 05:29:20;;;;;;;1.10;1.00;;;;;;;13.75;100.00;99639.16;4996563;28;20451;-72
2021/06/30 05:31:51;;;;;;;1.42;1.33;;;;;;;13.71;100.00;99643.94;4995605;28;20066;-72
2021/06/30 05:34:23;;;;;;;2.10;1.60;;;;;;;13.67;100.00;99642.50;4996231;28;20133;-71
2021/06/30 05:36:54;;;;;;;1.50;0.90;;;;;;;13.55;100.00;99638.97;4996410;28;20128;-71
2021/06/30 05:39:26;;;;;;;2.47;1.15;;;;;;;13.49;100.00;99639.47;4995490;28;20136;-71
2021/06/30 05:41:58;;;;;;;3.00;1.50;;;;;;;13.57;100.00;99637.03;4995485;28;20058;-71
2021/06/30 05:44:29;;;;;;;1.10;1.00;;;;;;;13.62;100.00;99634.81;4996292;28;20062;-67
2021/06/30 05:47:01;;;;;;;3.03;1.08;;;;;;;13.68;100.00;99642.34;4988877;28;20046;-70
2021/06/30 05:49:32;;;;;;;2.97;1.40;;;;;;;13.66;100.00;99644.31;4985727;28;20415;-74
2021/06/30 05:52:04;;;;;;;2.45;1.33;;;;;;;13.64;100.00;99643.59;4987482;28;20321;-72
2021/06/30 05:54:36;;;;;;;4.32;1.70;;;;;;;13.65;100.00;99649.81;4984536;28;20049;-69
2021/06/30 05:57:08;;;;;;;2.47;1.90;;;;;;;13.60;100.00;99646.63;4984414;28;20170;-74
2021/06/30 05:59:40;;;;;;;2.08;1.98;;;;;;;13.53;100.00;99654.34;4985100;28;20054;-73
2021/06/30 06:02:11;;;;;;;2.22;1.98;;;;;;;13.47;100.00;99657.53;5016408;28;20105;-73
2021/06/30 06:04:43;;;;;;;2.00;1.90;;;;;;;13.38;100.00;99668.00;4987004;28;20057;-75
2021/06/30 06:07:14;;;;;;;3.10;2.42;;;;;;;13.38;100.00;99672.50;4987184;28;20454;-71
2021/06/30 06:09:46;;;;;;;2.80;2.60;;;;;;;13.42;100.00;99680.16;4984663;28;20121;-76
2021/06/30 06:12:18;;;;;;;2.75;2.55;;;;;;;13.50;100.00;99674.22;4983904;28;20073;-73
2021/06/30 06:14:49;;;;;;;3.00;2.70;;;;;;;13.50;100.00;99663.50;4985324;28;20058;-76
2021/06/30 06:17:21;;;;;;;2.42;2.20;;;;;;;13.50;100.00;99668.00;4988017;28;20046;-70
2021/06/30 06:19:53;;;;;;;3.78;3.05;;;;;;;13.46;100.00;99667.41;4982231;28;20452;-79
2021/06/30 06:22:24;;;;;;;2.78;2.47;;;;;;;13.56;100.00;99662.13;4983828;28;20116;-70
2021/06/30 06:24:51;;;;;;;3.35;1.90;;;;;;;13.47;100.00;99661.06;4984500;28;20050;-71
2021/06/30 06:27:23;;;;;;;1.70;1.60;;;;;;;13.44;100.00;99663.94;4984825;28;20054;-71
2021/06/30 06:29:55;;;;;;;3.33;1.65;;;;;;;13.52;100.00;99653.47;4985694;28;20054;-71
2021/06/30 06:32:27;;;;;;;2.25;1.40;;;;;;;13.39;100.00;99631.31;4983698;28;20137;-78
2021/06/30 06:34:59;;;;;;;2.30;0.98;;;;;;;13.62;100.00;99642.03;4985134;28;20532;-77
2021/06/30 06:37:32;;;;;;;2.58;1.00;;;;;;;13.50;100.00;99625.13;4991373;28;20050;-78
2021/06/30 06:40:06;;;;;;;1.73;1.15;;;;;;;13.77;100.00;99646.09;4986572;28;20054;-70
2021/06/30 06:42:38;;;;;;;1.30;1.20;;;;;;;13.82;100.00;99635.00;4984944;28;20054;-75
2021/06/30 06:45:10;;;;;;;3.20;0.98;;;;;;;13.85;100.00;99642.81;4985026;28;20441;-73
2021/06/30 06:47:36;;;;;;;2.25;1.10;;;;;;;13.77;100.00;99642.59;4987833;28;20050;-79
2021/06/30 06:50:09;;;;;;;2.17;1.40;;;;;;;13.83;100.00;99631.31;5005009;28;20058;-77
2021/06/30 06:52:41;;;;;;;1.48;1.30;;;;;;;13.75;100.00;99644.53;4984279;28;20109;-70
2021/06/30 06:55:14;;;;;;;2.17;1.60;;;;;;;13.75;100.00;99641.84;4985544;28;20050;-76
2021/06/30 06:57:45;;;;;;;1.90;1.73;;;;;;;13.73;100.00;99636.59;4984410;28;20459;-77
2021/06/30 07:00:18;;;;;;;3.95;1.85;;;;;;;13.64;100.00;99614.09;4984625;28;20059;-79
2021/06/30 07:02:49;;;;;;;1.98;1.77;;;;;;;13.82;100.00;99641.22;4984388;28;20057;-78
2021/06/30 07:05:21;;;;;;;1.67;1.58;;;;;;;13.76;100.00;99639.03;4985312;28;20364;-77
2021/06/30 07:07:52;;;;;;;1.60;1.50;;;;;;;13.82;100.00;99643.03;4985318;28;20385;-78
2021/06/30 07:10:24;;;;;;;1.88;1.77;;;;;;;13.92;100.00;99638.63;4983995;28;20058;-74
2021/06/30 07:12:55;;;;;;;1.00;1.00;;;;;;;13.91;100.00;99644.09;4984608;28;20451;-76
2021/06/30 07:15:28;;;;;;;1.55;0.95;;;;;;;13.80;100.00;99651.25;4984632;28;20062;-76
2021/06/30 07:17:55;;;;;;;1.58;1.10;;;;;;;13.88;100.00;99660.47;4984828;28;20062;-77
2021/06/30 07:20:26;;;;;;;1.33;1.23;;;;;;;13.90;100.00;99659.34;4984421;28;20051;-76
2021/06/30 07:22:58;;;;;;;2.10;1.50;;;;;;;14.05;100.00;99675.16;4984520;28;20057;-74
2021/06/30 07:25:29;;;;;;;1.95;1.40;;;;;;;14.05;100.00;99672.47;4985185;28;20448;-74
2021/06/30 07:28:01;;;;;;;4.15;1.30;;;;;;;14.07;100.00;99673.19;4972796;28;20038;-76
2021/06/30 07:30:34;;;;;;;1.80;1.50;;;;;;;14.22;100.00;99685.31;4990755;28;20058;-72
2021/06/30 07:33:07;;;;;;;2.03;1.40;;;;;;;14.17;100.00;99682.16;4986653;28;20051;-69
2021/06/30 07:35:38;;;;;;;2.38;1.38;;;;;;;14.21;100.00;99689.00;4987908;28;20101;-69
2021/06/30 07:38:10;;;;;;;1.20;1.00;;;;;;;14.05;100.00;99693.94;4988345;28;20043;-69
2021/06/30 07:40:37;;;;;;;3.05;1.20;;;;;;;14.04;100.00;99697.59;4986761;28;20162;-72
2021/06/30 07:43:08;;;;;;;1.77;1.60;;;;;;;14.07;100.00;99700.91;4987067;28;20051;-69
2021/06/30 07:45:37;;;;;;;1.85;1.50;;;;;;;14.07;100.00;99702.72;4985458;28;20093;-69
2021/06/30 07:48:04;;;;;;;2.28;2.08;;;;;;;13.82;100.00;99694.88;4992118;28;20050;-72
2021/06/30 07:50:31;;;;;;;3.35;2.33;;;;;;;13.88;100.00;99714.97;4988559;28;20082;-70
2021/06/30 07:52:58;;;;;;;3.13;2.70;;;;;;;13.93;100.00;99710.06;4989018;28;20055;-70
2021/06/30 07:55:26;;;;;;;2.53;2.33;;;;;;;13.82;100.00;99720.81;4987096;28;20042;-69
2021/06/30 07:57:52;;;;;;;6.45;2.70;;;;;;;13.76;100.00;99721.31;4987847;28;20089;-70
2021/06/30 08:00:19;;;;;;;2.42;1.80;;;;;;;13.80;100.00;99722.78;4989114;28;20089;-68
2021/06/30 08:02:46;;;;;;;1.95;1.85;;;;;;;13.73;100.00;99726.94;4986249;28;20097;-70
2021/06/30 08:05:12;;;;;;;2.25;1.90;;;;;;;13.60;100.00;99713.66;4987286;28;20050;-75
2021/06/30 08:07:39;;;;;;;2.28;1.70;;;;;;;13.64;100.00;99721.38;4988978;28;20046;-74
2021/06/30 08:10:08;;;;;;;1.60;1.50;;;;;;;13.56;100.00;99726.47;4986559;28;20054;-73
2021/06/30 08:12:35;;;;;;;2.08;1.75;;;;;;;13.43;100.00;99718.53;4987792;28;20045;-73
2021/06/30 08:15:03;;;;;;;2.28;2.08;;;;;;;13.49;100.00;99714.53;4988184;28;20150;-74
2021/06/30 08:17:30;;;;;;;2.03;1.85;;;;;;;13.61;100.00;99728.81;4989545;28;20159;-76
2021/06/30 08:19:57;;;;;;;0.90;0.90;;;;;;;13.65;100.00;99731.13;4988578;28;20072;-78
2021/06/30 08:22:24;;;;;;;3.58;1.38;;;;;;;13.84;100.00;99718.88;4986518;28;20054;-75
2021/06/30 08:24:51;;;;;;;3.10;1.00;;;;;;;13.85;100.00;99731.31;4987268;28;20075;-76
2021/06/30 08:27:20;;;;;;;0.80;0.80;;;;;;;13.77;100.00;99731.09;4992128;28;20474;-75
2021/06/30 08:29:48;;;;;;;0.77;0.77;;;;;;;13.81;100.00;99732.53;4989296;28;20080;-76
2021/06/30 08:32:16;;;;;;;1.40;1.10;;;;;;;13.83;100.00;99733.25;4990566;28;20057;-77
2021/06/30 08:34:43;;;;;;;2.92;1.20;;;;;;;13.84;100.00;99730.47;4988920;28;20503;-74
2021/06/30 08:37:11;;;;;;;2.42;1.05;;;;;;;13.92;100.00;99727.16;4986653;28;20047;-77
2021/06/30 08:39:38;;;;;;;2.10;0.80;;;;;;;13.92;100.00;99720.91;4988718;28;20039;-73
2021/06/30 08:42:05;;;;;;;1.38;0.90;;;;;;;13.96;100.00;99723.22;4985621;28;20125;-74
2021/06/30 08:44:34;;;;;;;1.10;0.70;;;;;;;13.93;100.00;99723.50;4986881;28;20102;-73
2021/06/30 08:47:01;;;;;;;2.40;0.77;;;;;;;13.96;100.00;99707.13;4990536;28;20061;-71
2021/06/30 08:49:29;;;;;;;2.47;1.10;;;;;;;14.18;100.00;99712.56;4987107;28;20069;-73
2021/06/30 08:51:57;;;;;;;2.22;1.27;;;;;;;14.37;100.00;99706.47;4987139;28;20046;-71
2021/06/30 08:54:26;;;;;;;1.80;1.70;;;;;;;14.60;100.00;99699.16;4987809;28;20046;-70
2021/06/30 08:56:54;;;;;;;4.85;2.05;;;;;;;14.58;100.00;99700.25;4987117;28;20397;-69
2021/06/30 08:59:22;;;;;;;2.75;2.45;;;;;;;14.59;100.00;99708.19;4986049;28;20050;-69
2021/06/30 09:01:49;;;;;;;2.90;2.70;;;;;;;14.67;100.00;99712.94;4987774;28;20047;-68
2021/06/30 09:04:16;;;;;;;4.88;2.80;;;;;;;14.64;100.00;99711.34;4986991;28;20511;-69
2021/06/30 09:06:42;;;;;;;3.08;2.70;;;;;;;14.51;100.00;99684.66;4986036;28;20051;-68
2021/06/30 09:09:15;;;;;;;4.32;3.28;;;;;;;14.75;100.00;99710.47;4986023;28;20046;-67
2021/06/30 09:11:53;;;;;;;4.28;3.58;;;;;;;14.87;100.00;99708.53;4987985;28;20054;-68
2021/06/30 09:14:24;;;;;;;3.38;3.10;;;;;;;14.84;100.00;99710.63;4987690;28;20129;-68
2021/06/30 09:16:58;;;;;;;4.00;3.65;;;;;;;14.86;100.00;99714.91;4986379;28;20069;-70
2021/06/30 09:19:46;;;;;;;4.32;3.72;;;;;;;14.76;100.00;99720.22;4986183;28;20046;-70
2021/06/30 09:22:14;;;;;;;4.78;3.40;;;;;;;14.61;100.00;99718.81;4987708;28;20428;-72
2021/06/30 09:24:41;;;;;;;4.90;3.42;;;;;;;14.34;100.00;99718.31;4990548;28;20058;-71
2021/06/30 09:27:09;;;;;;;4.13;3.70;;;;;;;14.33;100.00;99713.94;4989822;28;20047;-73
2021/06/30 09:29:41;;;;;;;3.85;3.20;;;;;;;14.52;100.00;99715.06;4991402;28;20348;-70
2021/06/30 09:32:10;;;;;;;5.78;3.92;;;;;;;14.68;100.00;99717.31;4984825;28;20046;-71
2021/06/30 09:34:38;;;;;;;4.50;3.65;;;;;;;14.86;100.00;99714.06;4983891;28;20085;-70
2021/06/30 09:37:10;;;;;;;4.72;4.28;;;;;;;14.78;100.00;99710.19;4985433;28;20084;-70
2021/06/30 09:39:59;;;;;;;5.50;5.00;;;;;;;14.99;100.00;99720.03;4985875;28;20043;-71
2021/06/30 09:42:32;;;;;;;5.63;4.72;;;;;;;14.85;100.00;99723.09;4987318;28;20744;-71
2021/06/30 09:45:14;;;;;;;4.63;4.10;;;;;;;14.73;100.00;99715.09;4986128;28;20051;-69
2021/06/30 09:47:43;;;;;;;4.22;3.83;;;;;;;14.66;100.00;99719.28;4987157;28;20106;-68
2021/06/30 09:50:10;;;;;;;6.82;4.85;;;;;;;14.70;100.00;99714.50;4985051;28;20109;-75
2021/06/30 09:52:39;;;;;;;5.82;4.30;;;;;;;14.86;100.00;99716.75;4987507;28;20049;-71
2021/06/30 09:55:41;;;;;;;4.50;4.07;;;;;;;14.88;100.00;99726.34;4984362;28;20397;-71
2021/06/30 09:58:08;;;;;;;4.18;3.78;;;;;;;14.87;100.00;99726.50;4985088;28;20047;-69
2021/06/30 10:00:35;;;;;;;4.70;4.10;;;;;;;14.86;100.00;99730.19;4985837;28;20107;-70
2021/06/30 10:03:02;;;;;;;4.47;3.60;;;;;;;14.76;100.00;99730.97;4985895;28;20055;-71
2021/06/30 10:05:31;;;;;;;4.47;3.90;;;;;;;14.87;100.00;99729.19;4984690;28;20051;-71
2021/06/30 10:08:14;;;;;;;3.80;3.42;;;;;;;15.04;100.00;99725.03;4985913;28;20050;-71
2021/06/30 10:10:43;;;;;;;3.85;3.55;;;;;;;15.00;100.00;99727.16;4969759;28;20054;-71
2021/06/30 10:13:10;;;;;;;4.45;4.00;;;;;;;15.05;100.00;99724.88;4983970;28;20051;-68
2021/06/30 10:15:39;;;;;;;3.92;3.42;;;;;;;15.11;99.59;99738.78;4984748;28;20046;-69
2021/06/30 10:18:06;;;;;;;4.00;3.42;;;;;;;15.14;100.00;99738.53;4986783;28;20096;-68
2021/06/30 10:20:41;;;;;;;3.28;3.08;;;;;;;15.17;99.06;99727.50;4989608;28;20108;-68
2021/06/30 10:23:08;;;;;;;5.40;4.00;;;;;;;15.32;100.00;99742.28;4983900;28;20392;-69
2021/06/30 10:25:35;;;;;;;4.28;3.88;;;;;;;15.31;100.00;99743.28;4986670;28;20058;-70
2021/06/30 10:28:03;;;;;;;4.80;4.15;;;;;;;15.39;100.00;99739.06;4986173;28;20440;-69
2021/06/30 10:30:29;;;;;;;5.10;4.00;;;;;;;15.38;100.00;99737.34;4989411;28;20050;-68
2021/06/30 10:32:59;;;;;;;5.72;4.60;;;;;;;15.48;100.00;99743.63;4984591;28;20047;-77
2021/06/30 10:35:32;;;;;;;5.18;4.35;;;;;;;15.52;99.12;99742.34;4987774;28;20075;-70
2021/06/30 10:37:58;;;;;;;3.92;3.58;;;;;;;15.62;100.00;99742.38;4984670;28;20134;-72
2021/06/30 10:40:32;;;;;;;4.22;3.92;;;;;;;15.53;100.00;99735.97;4985512;28;20393;-72
2021/06/30 10:43:09;;;;;;;4.30;3.90;;;;;;;15.50;99.75;99744.34;4984786;28;20054;-71
2021/06/30 10:45:37;;;;;;;4.03;3.30;;;;;;;15.51;98.33;99737.97;4984460;28;20046;-71
2021/06/30 10:48:06;;;;;;;4.80;3.47;;;;;;;15.44;97.17;99740.38;4988178;28;20061;-73
2021/06/30 10:50:47;;;;;;;4.57;4.18;;;;;;;15.42;96.20;99747.69;4988386;28;20055;-75
2021/06/30 10:53:15;;;;;;;4.60;4.20;;;;;;;15.46;96.83;99754.53;4986631;28;20051;-72
2021/06/30 10:55:49;;;;;;;4.38;3.97;;;;;;;15.45;96.48;99750.13;4983775;28;20124;-73
2021/06/30 10:58:18;;;;;;;4.40;4.00;;;;;;;15.54;96.30;99747.59;4986150;28;20054;-73
2021/06/30 11:01:04;;;;;;;3.97;3.47;;;;;;;15.59;95.05;99748.88;4986975;28;20419;-73
2021/06/30 11:03:46;;;;;;;3.20;2.95;;;;;;;15.65;92.55;99750.19;4990161;28;20090;-73
2021/06/30 11:06:30;;;;;;;3.30;3.00;;;;;;;15.31;93.26;99762.09;4987565;28;20042;-71
2021/06/30 11:09:24;;;;;;;4.55;3.67;;;;;;;15.11;97.65;99761.16;4990324;28;20057;-70
2021/06/30 11:11:55;;;;;;;4.05;3.65;;;;;;;15.01;97.87;99763.78;4988345;28;20046;-71
2021/06/30 11:14:38;;;;;;;4.07;3.67;;;;;;;14.86;99.04;99773.19;4988643;28;20051;-72
2021/06/30 11:17:05;;;;;;;4.90;4.50;;;;;;;14.85;100.00;99772.31;4987642;28;20115;-73
2021/06/30 11:19:32;;;;;;;4.60;4.20;;;;;;;14.75;98.45;99769.56;4991265;28;20043;-69
2021/06/30 11:22:05;;;;;;;6.20;5.60;;;;;;;14.78;100.00;99771.97;4987946;28;20054;-70
2021/06/30 11:24:39;;;;;;;6.35;5.72;;;;;;;14.82;98.60;99767.19;4987467;28;20444;-68
2021/06/30 11:27:06;;;;;;;6.18;5.57;;;;;;;14.93;100.00;99766.28;4990257;28;20049;-72
2021/06/30 11:32:27;;;;;;;6.30;5.75;;;;;;;15.14;97.52;99770.78;4989566;28;20053;-70
2021/06/30 11:34:54;;;;;;;7.20;6.50;;;;;;;15.19;99.61;99774.78;4989385;28;20138;-72
2021/06/30 11:37:21;;;;;;;8.02;6.03;;;;;;;15.21;94.65;99766.59;4987340;28;20055;-71
2021/06/30 11:39:49;;;;;;;6.55;5.88;;;;;;;15.15;95.93;99772.50;4987652;28;20384;-71
2021/06/30 11:42:32;;;;;;;7.03;6.32;;;;;;;15.26;96.88;99774.25;4987300;28;20186;-77
2021/06/30 11:44:58;;;;;;;6.63;6.03;;;;;;;15.43;97.58;99775.44;4986608;28;20328;-74
2021/06/30 11:47:26;;;;;;;6.03;5.03;;;;;;;15.59;95.79;99770.41;4990212;28;20436;-71
2021/06/30 11:50:01;;;;;;;5.55;4.53;;;;;;;15.50;92.84;99770.38;4988680;28;20070;-75